Kobuk Valley National Park, AK

1:57 AM AKDT on October 20, 2014 (GMT -0800)
Baker Memorial | Change Station
CLOSE
Current Station
Airport
Location: Kiana,
Elevation: 151 ft
Nearby Weather Stations

Elev 151 ft 66.98 °N, 160.44 °W | Updated 56 minutes ago

Overcast
Overcast
25 °F
Feels Like 19 °F
N
5
Wind Variable Wind from NNW

Today
High -- | Low -- °F
--% Chance of Precip.
Yesterday
High -- | Low -- °F
Precip. -- in
10:02 AM 6:47 PM
Waning Crescent, 12% visible
Pressure 29.58 in
Visibility 10.0 miles
Clouds Overcast 8500 ft
Windchill 19 °F
Dew Point 18 °F
Humidity 75%
Rainfall 0.00 in
Snow Depth Not available.
UV 0 out of 12
Pollen Not available.
Air Quality Not available.
Flu Activity Sporadic
METAR PAIK 200901Z AUTO 33004KT 10SM OVC085 M04/M08 A2945 RMK AO2 SLP016 T10391078 410391039 56008 FZRANO

More Conditions Fewer Conditions

Pressure 29.58 in
Visibility 10.0 miles
Clouds Overcast 8500 ft
Windchill 19 °F
Dew Point 18 °F
Humidity 75%
Rainfall 0.00 in
Snow Depth Not available.
UV 0 out of 12
Pollen Not available.
Air Quality Not available.
Flu Activity Sporadic
METAR PAIK 200901Z AUTO 33004KT 10SM OVC085 M04/M08 A2945 RMK AO2 SLP016 T10391078 410391039 56008 FZRANO

More Conditions Fewer Conditions

10-Day Weather Forecast

Almanac

Astronomy

Oct. 20, 2014 Rise Set
Actual Time 10:02 AM AKDT 6:47 PM AKDT
Civil Twilight 9:05 AM AKDT 7:45 PM AKDT
Nautical Twilight 8:01 AM AKDT 8:48 PM AKDT
Astronomical Twilight 6:57 AM AKDT 9:52 PM AKDT
Moon 5:44 AM AKDT 6:21 PM AKDT
Length of Visible Light 10h 40m
Length of Day
8h 44m
Waning Crescent, 12% of the Moon is Illuminated
Today
Waning Crescent
Oct 23
New
Oct 30
First Quarter
Nov 6
Full
Nov 14
Last Quarter

Today's Extremes

State Highs State Lows

Community

WunderPhotos

Upload Photos

1,763,325 photos uploaded!

Nearby

Snow Depth

Station Depth Elevation
Rocky Point 3 in 500 ft
Gobblers Knob 2 in 2030 ft
Coldfoot 4 in 1040 ft
Atigun Pass 13 in 4800 ft
Imnaviat Creek 21 in 3050 ft

Earthquake Activity

City Distance Mag. Time & Date
No recent earthquake activity has been reported nearby.
Minimum magnitude displayed is 2.5.

Coastal Water Temperatures

Place Temperature
No Stations Reporting

Nearby Weather Stations